Flight Track Log - Related Links

Times and Time Zones

All times are in EDT time to prevent confusion due to time zone crossing. See the N620ZJ flight status page for this flight to view local times or setup timezone preferences in your user account.

Time Position Orientation Groundspeed Altitude Reporting Facility
EDT Latitude Longitude Course Direction KTS MPH feet Rate Location/Type
Thu 02:51:37 PM 34.2144 -99.0736 304° West 150 173 7,900  Level Fort Worth Center
Thu 02:52:44 PM 34.2431 -99.1244 304° West 154 177 7,600 -281 Descending Fort Worth Center
Thu 02:53:45 PM 34.2717 -99.1628 312° West 157 181 7,300 -283 Descending Fort Worth Center
Thu 02:54:51 PM 34.3003 -99.2061 309° West 155 178 7,000 -283 Descending Fort Worth Center
Thu 02:55:52 PM 34.3142 -99.2489 291° West 151 174 6,700 -248 Descending Fort Worth Center
Thu 02:56:52 PM 34.3364 -99.2972 299° West 151 174 6,500 -157 Descending Fort Worth Center
Thu 02:57:47 PM 34.3506 -99.3378 293° West 146 168 6,400 -52 Descending Fort Worth Center
Thu 02:58:48 PM 34.3686 -99.3811 297° West 140 161 6,400  Level Fort Worth Center
Thu 02:59:48 PM 34.3847 -99.4217 296° West 139 160 6,400  Level Fort Worth Center
Thu 03:00:49 PM 34.3983 -99.4697 289° West 137 158 6,400  Level Fort Worth Center
Thu 03:01:49 PM 34.4144 -99.5106 296° West 136 157 6,400  Level Fort Worth Center
Thu 03:02:50 PM 34.4283 -99.5536 291° West 138 159 6,400  Level Fort Worth Center
Thu 03:03:51 PM 34.4486 -99.5919 303° West 137 158 6,400  Level Fort Worth Center
Thu 03:04:51 PM 34.4625 -99.6350 291° West 136 157 6,400  Level Fort Worth Center
Thu 03:05:52 PM 34.4783 -99.6808 293° West 138 159 6,400  Level Fort Worth Center
Thu 03:06:52 PM 34.4964 -99.7217 298° West 139 160 6,400  Level Fort Worth Center
Thu 03:07:53 PM 34.5122 -99.7675 293° West 140 161 6,400  Level Fort Worth Center
Thu 03:08:54 PM 34.5281 -99.8081 295° West 139 160 6,400  Level Fort Worth Center
Thu 03:09:54 PM 34.5439 -99.8514 294° West 136 157 6,400  Level Fort Worth Center
Thu 03:10:55 PM 34.5597 -99.8897 297° West 134 154 6,400  Level Fort Worth Center
Thu 03:12:12 PM 34.5797 -99.9356 298° West 141 162 6,400  Level Fort Worth Center
Thu 03:13:12 PM 34.5956 -99.9739 297° West 136 157 6,400  Level Fort Worth Center
Thu 03:14:12 PM 34.6114 -100.0200 293° West 136 157 6,400  Level Fort Worth Center
Thu 03:14:59 PM 34.6272 -100.0536 300° West 133 153 6,400  Level Albuquerque Center
Thu 03:16:02 PM 34.6408 -100.0869 296° West 133 153 6,400  Level Albuquerque Center
Thu 03:18:12 PM 34.7600 -99.9942 33° Northeast 145 167 6,400  Level Fort Worth Center
Thu 03:19:12 PM 34.8000 -99.9775 19° North 150 173 6,400  Level Fort Worth Center
Thu 03:20:12 PM 34.8400 -99.9611 19° North 150 173 6,400 50 Level Fort Worth Center
Thu 03:21:12 PM 34.8819 -99.9497 13° North 150 173 6,500 50 Climbing Fort Worth Center
Thu 03:22:12 PM 34.9258 -99.9483 North 145 167 6,500 -200 Level Fort Worth Center
Thu 03:23:12 PM 34.9672 -99.9625 344° North 145 167 6,100 -350 Descending Fort Worth Center
Thu 03:24:12 PM 34.9808 -100.0108 289° West 133 153 5,800 -300 Descending Fort Worth Center
Thu 03:25:12 PM 35.0008 -100.0469 304° West 133 153 5,500 130 Descending Fort Worth Center
Thu 03:25:44 PM 35.0100 -100.0697 296° West 136 157 6,000 323 Climbing Albuquerque Center
Thu 03:26:45 PM 35.0236 -100.1219 288° West 137 158 6,000  Level Albuquerque Center
Thu 03:27:46 PM 35.0386 -100.1636 294° West 134 154 6,000 144 Level Albuquerque Center
Thu 03:28:50 PM 35.0578 -100.1928 309° West 117 135 6,300 290 Climbing Albuquerque Center
Thu 03:29:50 PM 35.0742 -100.2292 299° West 121 139 6,600 145 Climbing Albuquerque Center
Thu 03:30:54 PM 35.0894 -100.2692 295° West 126 145 6,600 96 Level Albuquerque Center
Thu 03:31:55 PM 35.1075 -100.3164 295° West 128 147 6,800 192 Climbing Albuquerque Center
Thu 03:32:59 PM 35.1242 -100.3533 299° West 126 145 7,000 242 Climbing Albuquerque Center
Thu 03:33:59 PM 35.1400 -100.3917 297° West 126 145 7,300 293 Climbing Albuquerque Center
Thu 03:35:02 PM 35.1550 -100.4283 297° West 124 143 7,600 240 Climbing Albuquerque Center
Thu 03:36:04 PM 35.1703 -100.4647 297° West 122 140 7,800 246 Climbing Albuquerque Center
Thu 03:37:04 PM 35.1861 -100.5014 298° West 122 140 8,100 288 Climbing Albuquerque Center
Thu 03:38:09 PM 35.2053 -100.5458 298° West 123 142 8,400 288 Climbing Albuquerque Center
Thu 03:39:09 PM 35.2197 -100.5806 297° West 119 137 8,700 242 Climbing Albuquerque Center
Thu 03:40:13 PM 35.2325 -100.6181 293° West 119 137 8,900 240 Climbing Albuquerque Center
Thu 03:41:14 PM 35.2497 -100.6564 299° West 123 142 9,200 347 Climbing Albuquerque Center
Thu 03:42:14 PM 35.2653 -100.6928 298° West 123 142 9,600 341 Climbing Albuquerque Center
Thu 03:43:17 PM 35.2789 -100.7292 295° West 121 139 9,900 387 Climbing Albuquerque Center
Thu 03:44:18 PM 35.2950 -100.7736 294° West 120 138 10,400 288 Climbing Albuquerque Center
Thu 03:45:22 PM 35.3089 -100.8117 294° West 121 139 10,500 48 Climbing Albuquerque Center
Thu 03:46:22 PM 35.3217 -100.8544 290° West 127 146 10,500  Level Albuquerque Center
Thu 03:47:26 PM 35.3392 -100.8989 296° West 136 157 10,500  Level Albuquerque Center
Thu 03:48:26 PM 35.3575 -100.9428 297° West 141 162 10,500 -48 Level Albuquerque Center
Thu 03:49:30 PM 35.3761 -100.9953 294° West 142 163 10,400 -48 Descending Albuquerque Center
Thu 03:50:32 PM 35.3908 -101.0389 293° West 141 162 10,400 48 Level Albuquerque Center
Thu 03:51:34 PM 35.4056 -101.0814 293° West 138 159 10,500  Climbing Albuquerque Center
Thu 03:52:34 PM 35.4206 -101.1247 293° West 138 159 10,400 -49 Descending Albuquerque Center
Thu 03:53:37 PM 35.4342 -101.1675 291° West 137 158 10,400 48 Level Albuquerque Center
Thu 03:54:38 PM 35.4506 -101.2100 295° West 137 158 10,500 48 Climbing Albuquerque Center
Thu 03:55:42 PM 35.4703 -101.2603 296° West 137 158 10,500  Level Albuquerque Center
Thu 03:56:42 PM 35.4872 -101.3003 297° West 135 155 10,500  Level Albuquerque Center
Thu 03:57:44 PM 35.5044 -101.3411 297° West 135 155 10,500  Level Albuquerque Center
Thu 03:58:47 PM 35.5217 -101.3803 298° West 133 153 10,500 48 Level Albuquerque Center
Thu 03:59:50 PM 35.5383 -101.4194 298° West 131 151 10,600 48 Climbing Albuquerque Center
Thu 04:00:51 PM 35.5544 -101.4603 296° West 132 152 10,600  Level Albuquerque Center
Thu 04:01:52 PM 35.5750 -101.5092 297° West 134 154 10,600 -96 Level Albuquerque Center
Thu 04:02:56 PM 35.5919 -101.5500 297° West 134 154 10,400 -95 Descending Albuquerque Center
Thu 04:03:58 PM 35.6164 -101.5842 311° West 134 154 10,400 98 Level Albuquerque Center
Thu 04:04:58 PM 35.6389 -101.6208 307° West 135 155 10,600 49 Climbing Albuquerque Center
Thu 04:06:01 PM 35.6594 -101.6583 304° West 133 153 10,500 -48 Descending Albuquerque Center
Thu 04:07:02 PM 35.6842 -101.7031 304° West 132 152 10,500 48 Level Albuquerque Center
Thu 04:08:05 PM 35.7083 -101.7372 311° West 133 153 10,600 48 Climbing Albuquerque Center
Thu 04:09:07 PM 35.7308 -101.7739 307° West 134 154 10,600  Level Albuquerque Center
Thu 04:10:10 PM 35.7544 -101.8100 309° West 135 155 10,600 -48 Level Albuquerque Center
Thu 04:11:11 PM 35.7764 -101.8478 306° West 136 157 10,500  Descending Albuquerque Center
Thu 04:12:12 PM 35.7997 -101.8856 307° West 138 159 10,600  Climbing Albuquerque Center
Thu 04:13:14 PM 35.8261 -101.9306 306° West 137 158 10,500 -48 Descending Albuquerque Center
Thu 04:14:18 PM 35.8508 -101.9661 311° West 137 158 10,500 48 Level Albuquerque Center
Thu 04:15:19 PM 35.8725 -102.0033 306° West 136 157 10,600  Climbing Albuquerque Center
Thu 04:16:23 PM 35.8842 -102.0497 287° West 140 161 10,500  Descending Albuquerque Center
Thu 04:17:23 PM 35.8967 -102.0942 289° West 137 158 10,600 50 Climbing Albuquerque Center
Thu 04:18:24 PM 35.9147 -102.1428 295° West 132 152 10,600  Level Albuquerque Center
Thu 04:19:27 PM 35.9300 -102.1861 294° West 137 158 10,600  Level Albuquerque Center
Thu 04:20:28 PM 35.9464 -102.2308 294° West 142 163 10,600  Level Albuquerque Center
Thu 04:21:30 PM 35.9553 -102.2769 283° West 140 161 10,600 -47 Level Albuquerque Center
Thu 04:22:35 PM 35.9731 -102.3203 297° West 140 161 10,500 -47 Descending Albuquerque Center
Thu 04:23:37 PM 35.9894 -102.3633 295° West 140 161 10,500  Level Albuquerque Center
Thu 04:24:37 PM 36.0114 -102.4119 299° West 137 158 10,500  Level Albuquerque Center
Thu 04:25:41 PM 36.0286 -102.4542 297° West 137 158 10,500  Level Albuquerque Center
Thu 04:26:42 PM 36.0444 -102.4972 294° West 137 158 10,500  Level Albuquerque Center
Thu 04:27:43 PM 36.0614 -102.5397 296° West 139 160 10,500  Level Albuquerque Center
Thu 04:28:45 PM 36.0783 -102.5817 297° West 138 159 10,500  Level Albuquerque Center
Thu 04:29:49 PM 36.0942 -102.6250 294° West 138 159 10,500 48 Level Albuquerque Center
Thu 04:30:50 PM 36.1128 -102.6764 294° West 137 158 10,600 48 Climbing Albuquerque Center
Thu 04:31:53 PM 36.1222 -102.7228 284° West 138 159 10,600 -49 Level Albuquerque Center
Thu 04:32:53 PM 36.1331 -102.7678 287° West 138 159 10,500 -48 Descending Albuquerque Center
Thu 04:33:57 PM 36.1464 -102.8122 290° West 139 160 10,500  Level Albuquerque Center
Thu 04:34:57 PM 36.1564 -102.8575 285° West 138 159 10,500 48 Level Albuquerque Center
Thu 04:36:01 PM 36.1706 -102.9086 289° West 137 158 10,600 48 Climbing Albuquerque Center
Thu 04:37:02 PM 36.1817 -102.9547 287° West 138 159 10,600  Level Albuquerque Center
Thu 04:38:05 PM 36.1942 -103.0022 288° West 143 165 10,600  Level Albuquerque Center
Thu 04:39:07 PM 36.2056 -103.0486 287° West 141 162 10,600 -49 Level Albuquerque Center
Thu 04:40:07 PM 36.2178 -103.0944 288° West 141 162 10,500  Descending Albuquerque Center
Thu 04:41:11 PM 36.2281 -103.1386 286° West 136 157 10,600  Climbing Albuquerque Center
Thu 04:42:12 PM 36.2417 -103.1917 288° West 136 157 10,500  Descending Albuquerque Center
Thu 04:43:15 PM 36.2533 -103.2358 288° West 135 155 10,600 48 Climbing Albuquerque Center
Thu 04:44:16 PM 36.2647 -103.2842 286° West 140 161 10,600  Level Albuquerque Center
Thu 04:45:19 PM 36.2764 -103.3303 287° West 141 162 10,600  Level Albuquerque Center
Thu 04:46:20 PM 36.2864 -103.3764 285° West 140 161 10,600  Level Albuquerque Center
Thu 04:47:23 PM 36.2969 -103.4214 286° West 137 158 10,600  Level Albuquerque Center
Thu 04:48:25 PM 36.3100 -103.4753 287° West 139 160 10,600 -49 Level Albuquerque Center
Thu 04:49:26 PM 36.3192 -103.5219 284° West 137 158 10,500 -49 Descending Albuquerque Center
Thu 04:50:27 PM 36.3219 -103.5686 274° West 137 158 10,500 48 Level Albuquerque Center
Thu 04:51:31 PM 36.3347 -103.6147 289° West 137 158 10,600 48 Climbing Albuquerque Center
Thu 04:52:32 PM 36.3439 -103.6611 284° West 138 159 10,600 -48 Level Albuquerque Center
Thu 04:53:36 PM 36.3506 -103.7094 280° West 141 162 10,500  Descending Albuquerque Center
Thu 04:54:36 PM 36.3586 -103.7575 282° West 141 162 10,600 50 Climbing Albuquerque Center
Thu 04:55:37 PM 36.3686 -103.8131 283° West 141 162 10,600 -48 Level Albuquerque Center
Thu 04:56:41 PM 36.3767 -103.8597 282° West 140 161 10,500 -96 Descending Albuquerque Center
Thu 04:57:42 PM 36.3944 -103.9061 295° West 143 165 10,400 48 Descending Albuquerque Center
Thu 04:58:46 PM 36.4033 -103.9528 283° West 140 161 10,600 240 Climbing Albuquerque Center
Thu 04:59:47 PM 36.4119 -103.9975 283° West 135 155 10,900 290 Climbing Albuquerque Center
Thu 05:00:50 PM 36.4253 -104.0397 291° West 132 152 11,200 290 Climbing Albuquerque Center
Thu 05:01:51 PM 36.4356 -104.0800 288° West 126 145 11,500 344 Climbing Albuquerque Center
Thu 05:02:52 PM 36.4475 -104.1294 287° West 127 146 11,900 339 Climbing Albuquerque Center
Thu 05:03:55 PM 36.4581 -104.1714 287° West 127 146 12,200 286 Climbing Albuquerque Center
Thu 05:04:58 PM 36.4689 -104.2139 288° West 128 147 12,500 195 Climbing Albuquerque Center
Thu 05:05:58 PM 36.4800 -104.2536 289° West 124 143 12,600 48 Climbing Albuquerque Center
Thu 05:07:02 PM 36.4911 -104.2975 287° West 129 148 12,600  Level Albuquerque Center
Thu 05:08:02 PM 36.5033 -104.3422 289° West 134 154 12,600 -48 Level Albuquerque Center
Thu 05:09:06 PM 36.5153 -104.3869 288° West 134 154 12,500  Descending Albuquerque Center
Thu 05:10:07 PM 36.5289 -104.4408 287° West 138 159 12,600 98 Climbing Albuquerque Center
Thu 05:11:09 PM 36.5406 -104.4836 289° West 134 154 12,700 192 Climbing Albuquerque Center
Thu 05:12:12 PM 36.5522 -104.5286 288° West 135 155 13,000 288 Climbing Albuquerque Center
Thu 05:13:14 PM 36.5656 -104.5711 291° West 133 153 13,300 240 Climbing Albuquerque Center
Thu 05:14:17 PM 36.5781 -104.6039 295° West 115 132 13,500 244 Climbing Albuquerque Center
Thu 05:15:17 PM 36.5869 -104.6403 287° West 109 125 13,800 290 Climbing Albuquerque Center
Thu 05:16:21 PM 36.5950 -104.6744 286° West 105 121 14,100 339 Climbing Albuquerque Center
Thu 05:17:21 PM 36.6081 -104.7108 294° West 100 115 14,500 244 Climbing Albuquerque Center
Thu 05:18:24 PM 36.6197 -104.7414 295° West 97 112 14,600  Climbing Albuquerque Center
Thu 05:19:25 PM 36.6303 -104.7875 286° West 122 140 14,500 -49 Descending Albuquerque Center
Thu 05:20:27 PM 36.6408 -104.8319 287° West 134 154 14,500 48 Level Albuquerque Center
Thu 05:21:30 PM 36.6533 -104.8781 289° West 139 160 14,600 48 Climbing Albuquerque Center
Thu 05:22:33 PM 36.6658 -104.9222 289° West 136 157 14,600 -48 Level Albuquerque Center
Thu 05:23:35 PM 36.6772 -104.9694 287° West 139 160 14,500  Descending Albuquerque Center
Thu 05:24:36 PM 36.6914 -105.0231 288° West 138 159 14,600  Climbing Albuquerque Center
Thu 05:25:37 PM 36.7083 -105.0694 295° West 144 166 14,500 -48 Descending Albuquerque Center
Thu 05:26:40 PM 36.7261 -105.1122 297° West 145 167 14,500  Level Albuquerque Center
Thu 05:27:41 PM 36.7475 -105.1647 297° West 151 174 14,500  Level Albuquerque Center
Thu 05:28:45 PM 36.7664 -105.2014 303° West 138 159 14,500  Level Albuquerque Center
Thu 05:29:46 PM 36.7822 -105.2464 294° West 128 147 14,500  Level Albuquerque Center
Thu 05:30:49 PM 36.8011 -105.2850 301° West 133 153 14,500  Level Albuquerque Center
Thu 05:31:50 PM 36.8183 -105.3225 300° West 133 153 14,500  Level Albuquerque Center
Thu 05:32:52 PM 36.8367 -105.3706 295° West 137 158 14,500  Level Albuquerque Center
Thu 05:33:55 PM 36.8567 -105.4078 304° West 136 157 14,500  Level Albuquerque Center
Thu 05:35:09 PM 36.8844 -105.4636 302° West 138 159 14,500  Level Denver Center
Thu 05:36:11 PM 36.9067 -105.5078 302° West 138 159 14,500  Level Denver Center
Thu 05:37:13 PM 36.9264 -105.5525 299° West 137 158 14,500 21 Level Denver Center
Thu 05:39:00 PM 36.9560 -105.6180 299° West  Level Estimated
Thu 05:46:00 PM 37.0718 -105.8757 299° West  Level Estimated
Thu 05:47:00 PM 37.0883 -105.9126 299° West  Level Estimated
Thu 05:48:00 PM 37.1048 -105.9495 299° West  Level Estimated
Thu 05:49:00 PM 37.1213 -105.9864 299° West  Level Estimated
Thu 05:50:00 PM 37.1377 -106.0234 299° West  Level Estimated
Thu 05:51:00 PM 37.1542 -106.0603 299° West  Level Estimated
Thu 05:52:00 PM 37.1706 -106.0973 299° West  Level Estimated
Thu 05:53:00 PM 37.1871 -106.1343 299° West  Level Estimated
Thu 05:54:00 PM 37.2035 -106.1712 299° West  Level Estimated
Thu 05:55:00 PM 37.2199 -106.2083 299° West  Level Estimated
Thu 05:56:00 PM 37.2363 -106.2453 299° West  Level Estimated
Thu 05:57:00 PM 37.2527 -106.2823 299° West  Level Estimated
Thu 05:58:00 PM 37.2690 -106.3194 299° West  Level Estimated
Thu 05:59:00 PM 37.2854 -106.3565 299° West  Level Estimated
Thu 06:00:00 PM 37.3018 -106.3936 299° West  Level Estimated
Thu 06:01:00 PM 37.3181 -106.4307 299° West  Level Estimated
Thu 06:02:00 PM 37.3344 -106.4678 299° West  Level Estimated
Thu 06:03:00 PM 37.3507 -106.5049 299° West  Level Estimated
Thu 06:04:00 PM 37.3670 -106.5421 299° West  Level Estimated
Thu 06:05:00 PM 37.3833 -106.5793 299° West  Level Estimated
Thu 06:06:00 PM 37.3996 -106.6164 299° West  Level Estimated
Thu 06:07:00 PM 37.4159 -106.6536 299° West  Level Estimated
Thu 06:08:00 PM 37.4321 -106.6909 299° West  Level Estimated
Thu 06:09:00 PM 37.4484 -106.7281 299° West  Level Estimated
Thu 06:10:00 PM 37.4646 -106.7654 299° West  Level Estimated
Thu 06:11:00 PM 37.4808 -106.8026 299° West  Level Estimated
Thu 06:12:00 PM 37.4971 -106.8399 299° West  Level Estimated
Thu 06:13:00 PM 37.5132 -106.8772 299° West  Level Estimated
Thu 06:14:00 PM 37.5294 -106.9145 299° West  Level Estimated
Thu 06:15:00 PM 37.5456 -106.9519 299° West  Level Estimated
Thu 06:16:00 PM 37.5618 -106.9892 299° West  Level Estimated
Thu 06:17:00 PM 37.5779 -107.0266 299° West  Level Estimated
Thu 06:18:00 PM 37.5941 -107.0640 299° West  Level Estimated
Thu 06:19:00 PM 37.6102 -107.1014 299° West  Level Estimated
Thu 06:20:00 PM 37.6263 -107.1388 299° West  Level Estimated
Thu 06:21:00 PM 37.6424 -107.1762 299° West  Level Estimated
Thu 06:22:00 PM 37.6585 -107.2137 299° West  Level Estimated
Thu 06:23:00 PM 37.6746 -107.2511 298° West  Level Estimated
Thu 06:24:00 PM 37.6907 -107.2886 298° West  Level Estimated
Thu 06:24:21 PM 37.8010 -107.5360 298° West 134 154 15,500  Level FlightAware ADS-B
Thu 06:24:53 PM 37.8070 -107.5600 288° West 140 161 15,500  Level FlightAware ADS-B
Thu 06:25:30 PM 37.8130 -107.5900 284° West 140 161 15,500  Level FlightAware ADS-B
Thu 06:26:03 PM 37.8170 -107.6160 281° West 150 173 15,500  Level FlightAware ADS-B
Thu 06:26:39 PM 37.8210 -107.6460 280° West 145 167 15,500  Level FlightAware ADS-B
Thu 06:27:15 PM 37.8250 -107.6800 278° West 155 178 15,500  Level FlightAware ADS-B
Thu 06:27:52 PM 37.8270 -107.7060 276° West 156 180 15,500  Level FlightAware ADS-B
Thu 06:28:29 PM 37.8300 -107.7340 278° West 156 180 15,500  Level FlightAware ADS-B
Thu 06:29:05 PM 37.8320 -107.7620 275° West 156 180 15,500  Level FlightAware ADS-B
Thu 06:29:42 PM 37.8340 -107.7910 275° West 156 180 15,500  Level FlightAware ADS-B
Thu 06:30:18 PM 37.8360 -107.8190 275° West 156 180 15,500  Level FlightAware ADS-B
Thu 06:30:55 PM 37.8390 -107.8470 278° West 156 180 15,500  Level FlightAware ADS-B
Thu 06:33:00 PM 37.9037 -107.8818 337° Northwest  Level Estimated
Thu 06:34:00 PM 37.9347 -107.8985 337° Northwest  Level Estimated
Thu 06:35:00 PM 37.9538 -107.9088 337° Northwest  Level Estimated
Thu 06:36:00 PM 37.9538 -107.9088 180° South  Level Estimated
Thu 06:37:00 PM 37.9538 -107.9088 180° South  Level Estimated
Thu 06:38:00 PM 37.9538 -107.9088 180° South  Level Estimated
Thu 06:39:00 PM 37.9538 -107.9088 180° South  Level Estimated
Thu 06:40:00 PM 37.9538 -107.9088 180° South  Level Estimated
Thu 06:41:00 PM 37.9538 -107.9088 180° South  Level Estimated
Thu 06:42:00 PM 37.9538 -107.9088 180° South  Level Estimated
Thu 06:43:00 PM 37.9538 -107.9088 180° South  Level Estimated
Thu 06:44:00 PM 37.9538 -107.9088 180° South  Level Estimated
Thu 06:45:00 PM 37.9538 -107.9088 180° South  Level Estimated
Thu 06:46:00 PM 37.9538 -107.9088 180° South  Level Estimated
Thu 06:47:00 PM 37.9538 -107.9088 180° South  Level Estimated
Thu 06:48:00 PM 37.9538 -107.9088 180° South  Level Estimated
Thu 06:49:00 PM 37.9538 -107.9088 180° South  Level Estimated
Thu 06:50:00 PM 37.9538 -107.9088 180° South  Level Estimated
Thu 06:51:00 PM 37.9538 -107.9088 180° South  Level Estimated
Thu 06:52:00 PM 37.9538 -107.9088 180° South  Level Estimated

Login

Don't have an account? Register now (free) for customized features, flight alerts, and more!